Rechercher aéroport 
image banner adimage banner adimage banner ad
image banner ad

KUDD - Bermuda Dunes

Situé à Palm Springs, United States

ICAO - UDD, IATA -

Données fournies par Airmate  

Information générale

Coordonnées: N33°44'54" W116°16'29"
Élévation : 73 feet MSL.
Variation magnétique : 14° East
Voir autres Aéroports à California

Données opérationnelles

Special qualification required
Heure actuelle UTC:
Heure actuelle locale:
Météo à : KTRM - Jacqueline Cochran Rgnl ( 17 km )
METAR: KTRM 212252Z AUTO 14008KT 10SM CLR 39/02 A2995 RMK AO2 SLP145 T03940017
TAF: KTRM 211720Z 2118/2218 VRB04KT P6SM SKC FM212000 14008KT P6SM SKC FM220200 VRB04KT P6SM SKC
Voir NOTAMs / SUP AIP / TFR affectant cet aéroport [VIEW]
Fréquences de communication: [VIEW]

Pistes:

Identifiant RWYQFULongueur (ft)Largeur (ft)SurfaceLDA (ft)
10116°500270ASPH
28296°500270ASPH

Coordonnées de l'aéroport

Adresse: Palm Springs United States

Autres services d'aviation

Écoles de pilotage

Desert West Aviation

Desert West Aviation

Vue satellite de KUDD